createdAt,value
2023-03-20T00:00:24.150Z,88451.00
2023-03-20T00:01:24.171Z,88447.00
2023-03-20T00:02:24.150Z,88447.00
2023-03-20T00:03:24.261Z,88449.00
2023-03-20T00:04:24.182Z,88449.00
2023-03-20T00:05:24.163Z,88449.00
2023-03-20T00:06:24.156Z,88451.00
2023-03-20T00:07:24.150Z,88451.00
2023-03-20T00:08:24.168Z,88453.00
2023-03-20T00:09:24.157Z,88453.00
2023-03-20T00:10:24.158Z,88451.00
2023-03-20T00:11:24.154Z,88453.00
2023-03-20T00:12:24.162Z,88455.00
2023-03-20T00:13:24.145Z,88457.00
2023-03-20T00:14:24.135Z,88453.00
2023-03-20T00:15:24.151Z,88455.00
2023-03-20T00:16:24.221Z,88453.00
2023-03-20T00:17:24.143Z,88453.00
2023-03-20T00:18:24.162Z,88455.00
2023-03-20T00:19:24.203Z,88455.00
2023-03-20T00:20:24.158Z,88451.00
2023-03-20T00:21:24.184Z,88457.00
2023-03-20T00:22:24.150Z,88457.00
2023-03-20T00:23:24.141Z,88457.00
2023-03-20T00:24:24.183Z,88457.00
2023-03-20T00:25:24.157Z,88459.00
2023-03-20T00:26:24.158Z,88457.00
2023-03-20T00:27:24.148Z,88457.00
2023-03-20T00:28:24.139Z,88459.00
2023-03-20T00:29:24.155Z,88455.00
2023-03-20T00:30:24.152Z,88455.00
2023-03-20T00:31:24.213Z,88453.00
2023-03-20T00:32:24.152Z,88453.00
2023-03-20T00:33:24.154Z,88453.00
2023-03-20T00:34:24.190Z,88453.00
2023-03-20T00:35:24.146Z,88455.00
2023-03-20T00:36:24.156Z,88453.00
2023-03-20T00:37:24.139Z,88453.00
2023-03-20T00:38:24.137Z,88453.00
2023-03-20T00:39:24.146Z,88451.00
2023-03-20T00:40:24.136Z,88451.00
2023-03-20T00:41:24.158Z,88451.00
2023-03-20T00:42:24.145Z,88453.00
2023-03-20T00:43:24.138Z,88453.00
2023-03-20T00:44:24.132Z,88453.00
2023-03-20T00:45:24.134Z,88453.00
2023-03-20T00:46:24.240Z,88451.00
2023-03-20T00:47:24.180Z,88449.00
2023-03-20T00:48:24.149Z,88451.00
2023-03-20T00:49:24.168Z,88453.00
2023-03-20T00:50:24.163Z,88453.00
2023-03-20T00:51:24.153Z,88449.00
2023-03-20T00:52:24.165Z,88449.00
2023-03-20T00:53:24.173Z,88453.00
2023-03-20T00:54:24.171Z,88449.00
2023-03-20T00:55:24.163Z,88447.00
2023-03-20T00:56:24.189Z,88449.00
2023-03-20T00:57:24.208Z,88447.00
2023-03-20T00:58:24.181Z,88447.00
2023-03-20T00:59:24.176Z,88447.00
2023-03-20T01:00:24.194Z,88447.00
2023-03-20T01:01:24.202Z,88447.00
2023-03-20T01:02:24.257Z,88447.00
2023-03-20T01:03:24.194Z,88445.00
2023-03-20T01:04:24.200Z,88449.00
2023-03-20T01:05:24.193Z,88445.00
2023-03-20T01:06:24.225Z,88447.00
2023-03-20T01:07:24.222Z,88447.00
2023-03-20T01:08:24.210Z,88445.00
2023-03-20T01:09:24.214Z,88445.00
2023-03-20T01:10:24.230Z,88447.00
2023-03-20T01:11:24.224Z,88449.00
2023-03-20T01:12:24.219Z,88449.00
2023-03-20T01:13:24.215Z,88449.00
2023-03-20T01:14:24.258Z,88447.00
2023-03-20T01:15:24.236Z,88449.00
2023-03-20T01:16:24.296Z,88449.00
2023-03-20T01:17:24.242Z,88447.00
2023-03-20T01:18:24.213Z,88443.00
2023-03-20T01:19:24.210Z,88443.00
2023-03-20T01:20:24.240Z,88445.00
2023-03-20T01:21:24.241Z,88443.00
2023-03-20T01:22:24.235Z,88443.00
2023-03-20T01:23:24.221Z,88443.00
2023-03-20T01:24:24.209Z,88443.00
2023-03-20T01:25:24.237Z,88443.00
2023-03-20T01:26:24.219Z,88445.00
2023-03-20T01:27:24.212Z,88445.00
2023-03-20T01:28:24.218Z,88445.00
2023-03-20T01:29:24.205Z,88449.00
2023-03-20T01:30:24.197Z,88449.00
2023-03-20T01:31:24.275Z,88449.00
2023-03-20T01:32:24.229Z,88449.00
2023-03-20T01:33:24.211Z,88449.00
2023-03-20T01:34:24.203Z,88449.00
2023-03-20T01:35:24.204Z,88449.00
2023-03-20T01:36:24.226Z,88449.00
2023-03-20T01:37:24.222Z,88447.00
2023-03-20T01:38:24.231Z,88447.00
2023-03-20T01:39:24.236Z,88445.00
2023-03-20T01:40:24.228Z,88447.00
2023-03-20T01:41:24.228Z,88447.00
2023-03-20T01:42:24.253Z,88447.00
2023-03-20T01:43:24.243Z,88447.00
2023-03-20T01:44:24.246Z,88445.00
2023-03-20T01:45:24.242Z,88447.00
2023-03-20T01:46:24.314Z,88449.00
2023-03-20T01:47:24.268Z,88449.00
2023-03-20T01:48:24.247Z,88449.00
2023-03-20T01:49:24.248Z,88453.00
2023-03-20T01:50:24.236Z,88449.00
2023-03-20T01:51:24.227Z,88449.00
2023-03-20T01:52:24.254Z,88451.00
2023-03-20T01:53:24.224Z,88451.00
2023-03-20T01:54:24.219Z,88449.00
2023-03-20T01:55:24.222Z,88449.00
2023-03-20T01:56:24.213Z,88449.00
2023-03-20T01:57:24.220Z,88449.00
2023-03-20T01:58:24.217Z,88449.00
2023-03-20T01:59:24.217Z,88445.00
2023-03-20T02:00:24.213Z,88449.00
2023-03-20T02:01:24.256Z,88447.00
2023-03-20T02:02:24.242Z,88447.00
2023-03-20T02:03:24.243Z,88449.00
2023-03-20T02:04:24.290Z,88447.00
2023-03-20T02:05:24.204Z,88449.00
2023-03-20T02:06:24.210Z,88447.00
2023-03-20T02:07:24.194Z,88449.00
2023-03-20T02:08:24.188Z,88449.00
2023-03-20T02:09:24.183Z,88447.00
2023-03-20T02:10:24.196Z,88449.00
2023-03-20T02:11:24.188Z,88449.00
2023-03-20T02:12:24.182Z,88445.00
2023-03-20T02:13:24.165Z,88447.00
2023-03-20T02:14:24.196Z,88447.00
2023-03-20T02:15:24.181Z,88447.00
2023-03-20T02:16:24.276Z,88443.00
2023-03-20T02:17:24.182Z,88443.00
2023-03-20T02:18:24.150Z,88445.00
2023-03-20T02:19:24.153Z,88445.00
2023-03-20T02:20:24.164Z,88449.00
2023-03-20T02:21:24.168Z,88447.00
2023-03-20T02:22:24.164Z,88445.00
2023-03-20T02:23:24.160Z,88447.00
2023-03-20T02:24:24.167Z,88449.00
2023-03-20T02:25:24.175Z,88445.00
2023-03-20T02:26:24.177Z,88447.00
2023-03-20T02:27:24.171Z,88445.00
2023-03-20T02:28:24.201Z,88445.00
2023-03-20T02:29:24.175Z,88445.00
2023-03-20T02:30:24.177Z,88447.00
2023-03-20T02:31:24.222Z,88445.00
2023-03-20T02:32:24.166Z,88445.00
2023-03-20T02:33:24.175Z,88445.00
2023-03-20T02:34:24.162Z,88445.00
2023-03-20T02:35:24.175Z,88443.00
2023-03-20T02:36:24.170Z,88443.00
2023-03-20T02:37:24.181Z,88443.00
2023-03-20T02:38:24.169Z,88442.00
2023-03-20T02:39:24.161Z,88443.00
2023-03-20T02:40:24.170Z,88442.00
2023-03-20T02:41:24.243Z,88442.00
2023-03-20T02:42:24.164Z,88443.00
2023-03-20T02:43:24.174Z,88440.00
2023-03-20T02:44:24.172Z,88438.00
2023-03-20T02:45:24.183Z,88436.00
2023-03-20T02:46:24.230Z,88438.00
2023-03-20T02:47:24.207Z,88442.00
2023-03-20T02:48:24.202Z,88442.00
2023-03-20T02:49:24.201Z,88443.00
2023-03-20T02:50:24.301Z,88445.00
2023-03-20T02:51:24.238Z,88445.00
2023-03-20T02:52:24.269Z,88447.00
2023-03-20T02:53:24.299Z,88445.00
2023-03-20T02:54:24.292Z,88447.00
2023-03-20T02:55:24.346Z,88447.00
2023-03-20T02:56:24.322Z,88445.00
2023-03-20T02:57:24.343Z,88447.00
2023-03-20T02:58:24.371Z,88449.00
2023-03-20T02:59:24.401Z,88451.00
2023-03-20T03:00:24.397Z,88447.00
2023-03-20T03:01:24.507Z,88447.00
2023-03-20T03:02:24.516Z,88447.00
2023-03-20T03:03:24.545Z,88449.00
2023-03-20T03:04:24.492Z,88447.00
2023-03-20T03:05:24.531Z,88445.00
2023-03-20T03:06:24.538Z,88443.00
2023-03-20T03:07:24.551Z,88443.00
2023-03-20T03:08:24.601Z,88443.00
2023-03-20T03:09:24.612Z,88443.00
2023-03-20T03:10:24.656Z,88445.00
2023-03-20T03:11:24.655Z,88445.00
2023-03-20T03:12:24.682Z,88445.00
2023-03-20T03:13:24.740Z,88442.00
2023-03-20T03:14:24.755Z,88442.00
2023-03-20T03:15:24.793Z,88445.00
2023-03-20T03:16:24.830Z,88443.00
2023-03-20T03:17:24.839Z,88443.00
2023-03-20T03:18:24.877Z,88443.00
2023-03-20T03:19:24.897Z,88443.00
2023-03-20T03:20:24.916Z,88443.00
2023-03-20T03:21:24.948Z,88443.00
2023-03-20T03:22:24.983Z,88445.00
2023-03-20T03:23:25.024Z,88443.00
2023-03-20T03:24:39.152Z,88442.00
2023-03-20T03:25:26.066Z,88443.00
2023-03-20T03:26:25.090Z,88445.00
2023-03-20T03:27:25.150Z,88445.00
2023-03-20T03:28:25.178Z,88445.00
2023-03-20T03:29:25.198Z,88443.00
2023-03-20T03:30:25.241Z,88443.00
2023-03-20T03:31:25.335Z,88443.00
2023-03-20T03:32:25.306Z,88443.00
2023-03-20T03:33:25.355Z,88445.00
2023-03-20T03:34:25.370Z,88445.00
2023-03-20T03:35:25.428Z,88443.00
2023-03-20T03:36:25.453Z,88443.00
2023-03-20T03:37:25.490Z,88443.00
2023-03-20T03:38:25.577Z,88445.00
2023-03-20T03:39:25.569Z,88445.00
2023-03-20T03:40:25.591Z,88443.00
2023-03-20T03:41:25.634Z,88445.00
2023-03-20T03:42:25.662Z,88445.00
2023-03-20T03:43:25.714Z,88445.00
2023-03-20T03:44:25.749Z,88447.00
2023-03-20T03:45:25.765Z,88447.00
2023-03-20T03:46:25.838Z,88447.00
2023-03-20T03:47:25.848Z,88447.00
2023-03-20T03:48:25.873Z,88451.00
2023-03-20T03:49:25.928Z,88447.00
2023-03-20T03:50:25.952Z,88447.00
2023-03-20T03:51:25.990Z,88447.00
2023-03-20T03:52:26.014Z,88449.00
2023-03-20T03:53:26.052Z,88449.00
2023-03-20T03:54:26.077Z,88451.00
2023-03-20T03:55:26.133Z,88449.00
2023-03-20T03:56:26.162Z,88451.00
2023-03-20T03:57:26.185Z,88449.00
2023-03-20T03:58:26.225Z,88451.00
2023-03-20T03:59:26.292Z,88451.00
2023-03-20T04:00:26.332Z,88453.00
2023-03-20T04:01:26.486Z,88453.00
2023-03-20T04:02:26.358Z,88455.00
2023-03-20T04:03:26.410Z,88453.00
2023-03-20T04:04:26.487Z,88455.00
2023-03-20T04:05:26.471Z,88455.00
2023-03-20T04:06:26.523Z,88457.00
2023-03-20T04:07:26.554Z,88455.00
2023-03-20T04:08:26.580Z,88457.00
2023-03-20T04:09:26.637Z,88457.00
2023-03-20T04:10:26.687Z,88457.00
2023-03-20T04:11:26.721Z,88459.00
2023-03-20T04:12:26.729Z,88457.00
2023-03-20T04:13:26.815Z,88459.00
2023-03-20T04:14:26.806Z,88457.00
2023-03-20T04:15:26.830Z,88455.00
2023-03-20T04:16:26.882Z,88457.00
2023-03-20T04:17:26.902Z,88459.00
2023-03-20T04:18:26.932Z,88459.00
2023-03-20T04:19:26.971Z,88459.00
2023-03-20T04:20:26.999Z,88459.00
2023-03-20T04:21:27.029Z,88457.00
2023-03-20T04:22:27.050Z,88457.00
2023-03-20T04:23:27.088Z,88457.00
2023-03-20T04:24:27.128Z,88461.00
2023-03-20T04:25:27.166Z,88463.00
2023-03-20T04:26:27.327Z,88461.00
2023-03-20T04:27:27.235Z,88463.00
2023-03-20T04:28:27.284Z,88463.00
2023-03-20T04:29:27.331Z,88463.00
2023-03-20T04:30:27.336Z,88465.00
2023-03-20T04:31:27.452Z,88465.00
2023-03-20T04:32:27.428Z,88463.00
2023-03-20T04:33:27.451Z,88465.00
2023-03-20T04:34:27.510Z,88465.00
2023-03-20T04:35:27.532Z,88465.00
2023-03-20T04:36:27.566Z,88465.00
2023-03-20T04:37:27.602Z,88467.00
2023-03-20T04:38:27.667Z,88467.00
2023-03-20T04:39:27.683Z,88467.00
2023-03-20T04:40:27.709Z,88469.00
2023-03-20T04:41:27.763Z,88467.00
2023-03-20T04:42:27.807Z,88469.00
2023-03-20T04:43:27.857Z,88471.00
2023-03-20T04:44:27.881Z,88471.00
2023-03-20T04:45:27.943Z,88471.00
2023-03-20T04:46:28.022Z,88469.00
2023-03-20T04:47:28.026Z,88473.00
2023-03-20T04:48:28.061Z,88471.00
2023-03-20T04:49:28.121Z,88471.00
2023-03-20T04:50:28.143Z,88469.00
2023-03-20T04:51:28.199Z,88473.00
2023-03-20T04:52:28.228Z,88471.00
2023-03-20T04:53:28.289Z,88473.00
2023-03-20T04:54:28.357Z,88473.00
2023-03-20T04:55:28.386Z,88475.00
2023-03-20T04:56:28.411Z,88477.00
2023-03-20T04:57:28.460Z,88479.00
2023-03-20T04:58:28.520Z,88477.00
2023-03-20T04:59:28.550Z,88479.00
2023-03-20T05:00:28.581Z,88488.00
2023-03-20T05:01:28.658Z,88479.00
2023-03-20T05:02:28.667Z,88481.00
2023-03-20T05:03:28.689Z,88488.00
2023-03-20T05:04:28.847Z,88490.00
2023-03-20T05:05:28.773Z,88492.00
2023-03-20T05:06:28.803Z,88490.00
2023-03-20T05:07:28.845Z,88490.00
2023-03-20T05:08:28.898Z,88492.00
2023-03-20T05:09:28.929Z,88492.00
2023-03-20T05:10:28.957Z,88494.00
2023-03-20T05:11:29.009Z,88494.00
2023-03-20T05:12:29.023Z,88494.00
2023-03-20T05:13:29.060Z,88494.00
2023-03-20T05:14:29.105Z,88494.00
2023-03-20T05:15:29.153Z,88498.00
2023-03-20T05:16:29.246Z,88500.00
2023-03-20T05:17:29.214Z,88496.00
2023-03-20T05:18:29.259Z,88500.00
2023-03-20T05:19:29.300Z,88496.00
2023-03-20T05:20:29.348Z,88500.00
2023-03-20T05:21:29.369Z,88502.00
2023-03-20T05:22:29.395Z,88500.00
2023-03-20T05:23:29.435Z,88500.00
2023-03-20T05:24:29.480Z,88500.00
2023-03-20T05:25:29.542Z,88502.00
2023-03-20T05:26:29.572Z,88502.00
2023-03-20T05:27:29.598Z,88502.00
2023-03-20T05:28:29.640Z,88502.00
2023-03-20T05:29:29.678Z,88504.00
2023-03-20T05:30:29.718Z,88508.00
2023-03-20T05:31:29.822Z,88508.00
2023-03-20T05:32:29.795Z,88511.00
2023-03-20T05:33:29.841Z,88511.00
2023-03-20T05:34:29.885Z,88515.00
2023-03-20T05:35:29.961Z,88515.00
2023-03-20T05:36:29.956Z,88517.00
2023-03-20T05:37:29.996Z,88517.00
2023-03-20T05:38:30.028Z,88517.00
2023-03-20T05:39:30.065Z,88515.00
2023-03-20T05:40:30.124Z,88519.00
2023-03-20T05:41:30.147Z,88515.00
2023-03-20T05:42:30.183Z,88515.00
2023-03-20T05:43:30.229Z,88515.00
2023-03-20T05:44:30.263Z,88517.00
2023-03-20T05:45:30.320Z,88517.00
2023-03-20T05:46:30.465Z,88515.00
2023-03-20T05:47:30.408Z,88519.00
2023-03-20T05:48:30.429Z,88515.00
2023-03-20T05:49:30.486Z,88519.00
2023-03-20T05:50:30.526Z,88517.00
2023-03-20T05:51:30.550Z,88515.00
2023-03-20T05:52:30.569Z,88515.00
2023-03-20T05:53:30.643Z,88515.00
2023-03-20T05:54:30.656Z,88517.00
2023-03-20T05:55:30.723Z,88517.00
2023-03-20T05:56:30.748Z,88519.00
2023-03-20T05:57:30.796Z,88519.00
2023-03-20T05:58:30.829Z,88519.00
2023-03-20T05:59:30.862Z,88521.00
2023-03-20T06:00:30.939Z,88519.00
2023-03-20T06:01:30.956Z,88519.00
2023-03-20T06:02:31.027Z,88519.00
2023-03-20T06:03:31.077Z,88519.00
2023-03-20T06:04:31.093Z,88521.00
2023-03-20T06:05:31.130Z,88521.00
2023-03-20T06:06:31.173Z,88523.00
2023-03-20T06:07:31.214Z,88523.00
2023-03-20T06:08:31.258Z,88523.00
2023-03-20T06:09:31.294Z,88521.00
2023-03-20T06:10:31.361Z,88523.00
2023-03-20T06:11:31.398Z,88525.00
2023-03-20T06:12:31.460Z,88525.00
2023-03-20T06:13:31.480Z,88523.00
2023-03-20T06:14:31.533Z,88525.00
2023-03-20T06:15:31.705Z,88525.00
2023-03-20T06:16:31.580Z,88523.00
2023-03-20T06:17:31.613Z,88523.00
2023-03-20T06:18:31.634Z,88525.00
2023-03-20T06:19:31.668Z,88521.00
2023-03-20T06:20:31.705Z,88521.00
2023-03-20T06:21:31.717Z,88525.00
2023-03-20T06:22:31.718Z,88527.00
2023-03-20T06:23:31.774Z,88525.00
2023-03-20T06:24:31.808Z,88531.00
2023-03-20T06:25:31.810Z,88531.00
2023-03-20T06:26:31.787Z,88533.00
2023-03-20T06:27:31.814Z,88535.00
2023-03-20T06:28:31.846Z,88537.00
2023-03-20T06:29:31.832Z,88539.00
2023-03-20T06:30:31.846Z,88541.00
2023-03-20T06:31:31.890Z,88541.00
2023-03-20T06:32:31.888Z,88545.00
2023-03-20T06:33:31.892Z,88543.00
2023-03-20T06:34:31.949Z,88551.00
2023-03-20T06:35:32.029Z,88547.00
2023-03-20T06:36:31.925Z,88549.00
2023-03-20T06:37:31.950Z,88547.00
2023-03-20T06:38:31.954Z,88547.00
2023-03-20T06:39:31.987Z,88553.00
2023-03-20T06:40:31.987Z,88555.00
2023-03-20T06:41:34.879Z,88553.00
2023-03-20T06:42:33.025Z,88545.00
2023-03-20T06:43:32.055Z,88551.00
2023-03-20T06:44:32.135Z,88551.00
2023-03-20T06:45:32.182Z,88551.00
2023-03-20T06:46:32.319Z,88553.00
2023-03-20T06:47:32.316Z,88551.00
2023-03-20T06:48:32.417Z,88555.00
2023-03-20T06:49:32.495Z,88551.00
2023-03-20T06:50:32.494Z,88555.00
2023-03-20T06:51:32.603Z,88557.00
2023-03-20T06:52:32.657Z,88558.00
2023-03-20T06:53:32.710Z,88560.00
2023-03-20T06:54:32.749Z,88560.00
2023-03-20T06:55:32.778Z,88562.00
2023-03-20T06:56:32.838Z,88564.00
2023-03-20T06:57:32.890Z,88564.00
2023-03-20T06:58:32.856Z,88560.00
2023-03-20T06:59:32.924Z,88560.00
2023-03-20T07:00:32.918Z,88564.00
2023-03-20T07:01:32.944Z,88564.00
2023-03-20T07:02:32.977Z,88560.00
2023-03-20T07:03:32.966Z,88566.00
2023-03-20T07:04:32.994Z,88562.00
2023-03-20T07:05:32.999Z,88562.00
2023-03-20T07:06:33.034Z,88566.00
2023-03-20T07:07:33.012Z,88568.00
2023-03-20T07:08:35.074Z,88566.00
2023-03-20T07:09:33.025Z,88572.00
2023-03-20T07:10:33.000Z,88572.00
2023-03-20T07:11:33.022Z,88574.00
2023-03-20T07:12:33.002Z,88580.00
2023-03-20T07:13:33.006Z,88578.00
2023-03-20T07:14:33.040Z,88578.00
2023-03-20T07:15:33.057Z,88578.00
2023-03-20T07:16:33.088Z,88580.00
2023-03-20T07:17:33.047Z,88582.00
2023-03-20T07:18:33.023Z,88584.00
2023-03-20T07:19:33.034Z,88584.00
2023-03-20T07:20:33.044Z,88582.00
2023-03-20T07:21:33.051Z,88582.00
2023-03-20T07:22:33.056Z,88582.00
2023-03-20T07:23:33.064Z,88584.00
2023-03-20T07:24:33.041Z,88582.00
2023-03-20T07:25:42.154Z,88584.00
2023-03-20T07:26:34.048Z,88584.00
2023-03-20T07:27:33.113Z,88586.00
2023-03-20T07:28:33.034Z,88586.00
2023-03-20T07:29:33.013Z,88586.00
2023-03-20T07:30:33.048Z,88588.00
2023-03-20T07:31:33.072Z,88586.00
2023-03-20T07:32:33.064Z,88588.00
2023-03-20T07:33:33.028Z,88586.00
2023-03-20T07:34:33.012Z,88586.00
2023-03-20T07:35:33.137Z,88590.00
2023-03-20T07:36:33.013Z,88588.00
2023-03-20T07:37:34.817Z,88586.00
2023-03-20T07:38:33.007Z,88590.00
2023-03-20T07:39:33.009Z,88592.00
2023-03-20T07:40:32.981Z,88596.00
2023-03-20T07:41:32.985Z,88588.00
2023-03-20T07:42:32.978Z,88592.00
2023-03-20T07:43:32.984Z,88590.00
2023-03-20T07:44:32.990Z,88592.00
2023-03-20T07:45:33.085Z,88594.00
2023-03-20T07:46:33.013Z,88588.00
2023-03-20T07:47:33.010Z,88592.00
2023-03-20T07:48:32.952Z,88596.00
2023-03-20T07:49:32.958Z,88596.00
2023-03-20T07:50:32.967Z,88596.00
2023-03-20T07:51:32.987Z,88594.00
2023-03-20T07:52:32.980Z,88598.00
2023-03-20T07:53:32.950Z,88594.00
2023-03-20T07:54:33.038Z,88594.00
2023-03-20T07:55:32.963Z,88590.00
2023-03-20T07:56:33.011Z,88592.00
2023-03-20T07:57:33.036Z,88590.00
2023-03-20T07:58:32.985Z,88590.00
2023-03-20T07:59:32.979Z,88592.00
2023-03-20T08:00:33.041Z,88590.00
2023-03-20T08:01:33.035Z,88588.00
2023-03-20T08:02:33.070Z,88586.00
2023-03-20T08:03:33.137Z,88588.00
2023-03-20T08:04:32.988Z,88588.00
2023-03-20T08:05:33.017Z,88582.00
2023-03-20T08:06:33.038Z,88584.00
2023-03-20T08:07:33.003Z,88586.00
2023-03-20T08:08:33.015Z,88586.00
2023-03-20T08:09:33.025Z,88588.00
2023-03-20T08:10:33.057Z,88586.00
2023-03-20T08:11:34.370Z,88586.00
2023-03-20T08:12:33.041Z,88588.00
2023-03-20T08:13:33.044Z,88590.00
2023-03-20T08:14:33.029Z,88594.00
2023-03-20T08:15:33.037Z,88594.00
2023-03-20T08:16:33.071Z,88594.00
2023-03-20T08:17:33.096Z,88594.00
2023-03-20T08:18:33.051Z,88590.00
2023-03-20T08:19:33.055Z,88590.00
2023-03-20T08:20:33.073Z,88590.00
2023-03-20T08:21:33.050Z,88588.00
2023-03-20T08:22:33.054Z,88590.00
2023-03-20T08:23:33.044Z,88590.00
2023-03-20T08:24:33.043Z,88592.00
2023-03-20T08:25:33.050Z,88592.00
2023-03-20T08:26:33.070Z,88590.00
2023-03-20T08:27:33.061Z,88590.00
2023-03-20T08:28:46.722Z,88586.00
2023-03-20T08:29:34.075Z,88590.00
2023-03-20T08:30:33.103Z,88590.00
2023-03-20T08:31:33.104Z,88592.00
2023-03-20T08:32:33.129Z,88586.00
2023-03-20T08:33:33.099Z,88592.00
2023-03-20T08:34:33.113Z,88594.00
2023-03-20T08:35:34.651Z,88590.00
2023-03-20T08:36:33.166Z,88592.00
2023-03-20T08:37:33.172Z,88594.00
2023-03-20T08:38:33.153Z,88588.00
2023-03-20T08:39:33.265Z,88584.00
2023-03-20T08:40:33.226Z,88588.00
2023-03-20T08:41:33.232Z,88588.00
2023-03-20T08:42:33.266Z,88592.00
2023-03-20T08:43:33.293Z,88590.00
2023-03-20T08:44:33.323Z,88592.00
2023-03-20T08:45:33.321Z,88590.00
2023-03-20T08:46:33.407Z,88594.00
2023-03-20T08:47:33.370Z,88596.00
2023-03-20T08:48:33.415Z,88598.00
2023-03-20T08:49:33.453Z,88592.00
2023-03-20T08:50:33.389Z,88594.00
2023-03-20T08:51:33.418Z,88594.00
2023-03-20T08:52:33.408Z,88592.00
2023-03-20T08:53:33.431Z,88594.00
2023-03-20T08:54:33.453Z,88592.00
2023-03-20T08:55:33.666Z,88590.00
2023-03-20T08:56:33.496Z,88592.00
2023-03-20T08:57:33.569Z,88594.00
2023-03-20T08:58:33.540Z,88596.00
2023-03-20T08:59:33.592Z,88596.00
2023-03-20T09:00:33.590Z,88596.00
2023-03-20T09:01:48.403Z,88596.00
2023-03-20T09:02:34.732Z,88596.00
2023-03-20T09:03:33.643Z,88596.00
2023-03-20T09:04:33.654Z,88598.00
2023-03-20T09:05:34.391Z,88596.00
2023-03-20T09:06:33.764Z,88600.00
2023-03-20T09:07:33.710Z,88598.00
2023-03-20T09:08:33.730Z,88596.00
2023-03-20T09:09:33.688Z,88596.00
2023-03-20T09:10:33.751Z,88598.00
2023-03-20T09:11:33.709Z,88598.00
2023-03-20T09:12:33.819Z,88598.00
2023-03-20T09:13:33.707Z,88598.00
2023-03-20T09:14:33.754Z,88600.00
2023-03-20T09:15:33.931Z,88602.00
2023-03-20T09:16:33.769Z,88602.00
2023-03-20T09:17:33.763Z,88600.00
2023-03-20T09:18:33.741Z,88596.00
2023-03-20T09:19:33.755Z,88594.00
2023-03-20T09:20:33.753Z,88600.00
2023-03-20T09:21:33.781Z,88598.00
2023-03-20T09:22:33.777Z,88598.00
2023-03-20T09:23:33.768Z,88602.00
2023-03-20T09:24:33.756Z,88602.00
2023-03-20T09:25:33.924Z,88602.00
2023-03-20T09:26:33.754Z,88602.00
2023-03-20T09:27:33.795Z,88602.00
2023-03-20T09:28:33.773Z,88600.00
2023-03-20T09:29:33.740Z,88604.00
2023-03-20T09:30:34.302Z,88602.00
2023-03-20T09:31:33.818Z,88600.00
2023-03-20T09:32:33.763Z,88598.00
2023-03-20T09:33:33.733Z,88602.00
2023-03-20T09:34:33.746Z,88600.00
2023-03-20T09:35:33.827Z,88600.00
2023-03-20T09:36:33.710Z,88600.00
2023-03-20T09:37:33.721Z,88598.00
2023-03-20T09:38:33.706Z,88596.00
2023-03-20T09:39:33.707Z,88598.00
2023-03-20T09:40:34.018Z,88596.00
2023-03-20T09:41:33.686Z,88598.00
2023-03-20T09:42:33.689Z,88594.00
2023-03-20T09:43:33.675Z,88594.00
2023-03-20T09:44:33.664Z,88592.00
2023-03-20T09:45:33.665Z,88592.00
2023-03-20T09:46:33.744Z,88592.00
2023-03-20T09:47:33.681Z,88594.00
2023-03-20T09:48:33.708Z,88594.00
2023-03-20T09:49:33.714Z,88596.00
2023-03-20T09:50:33.991Z,88588.00
2023-03-20T09:51:33.658Z,88588.00
2023-03-20T09:52:33.659Z,88590.00
2023-03-20T09:53:33.677Z,88584.00
2023-03-20T09:54:47.071Z,88590.00
2023-03-20T09:55:35.058Z,88586.00
2023-03-20T09:56:33.673Z,88580.00
2023-03-20T09:57:33.685Z,88580.00
2023-03-20T09:58:33.724Z,88576.00
2023-03-20T09:59:33.703Z,88574.00
2023-03-20T10:00:33.959Z,88568.00
2023-03-20T10:01:33.836Z,88568.00
2023-03-20T10:02:33.796Z,88570.00
2023-03-20T10:03:33.809Z,88566.00
2023-03-20T10:04:33.862Z,88566.00
2023-03-20T10:05:33.898Z,88564.00
2023-03-20T10:06:33.887Z,88562.00
2023-03-20T10:07:33.919Z,88562.00
2023-03-20T10:08:33.960Z,88562.00
2023-03-20T10:09:33.961Z,88562.00
2023-03-20T10:10:34.282Z,88558.00
2023-03-20T10:11:34.018Z,88560.00
2023-03-20T10:12:34.035Z,88558.00
2023-03-20T10:13:34.049Z,88558.00
2023-03-20T10:14:34.073Z,88557.00
2023-03-20T10:15:34.073Z,88558.00
2023-03-20T10:16:34.205Z,88557.00
2023-03-20T10:17:34.092Z,88557.00
2023-03-20T10:18:34.150Z,88557.00
2023-03-20T10:19:34.155Z,88553.00
2023-03-20T10:20:34.352Z,88553.00
2023-03-20T10:21:34.101Z,88555.00
2023-03-20T10:22:34.112Z,88553.00
2023-03-20T10:23:34.121Z,88551.00
2023-03-20T10:24:34.114Z,88549.00
2023-03-20T10:25:34.102Z,88555.00
2023-03-20T10:26:34.105Z,88549.00
2023-03-20T10:27:34.149Z,88547.00
2023-03-20T10:28:34.143Z,88545.00
2023-03-20T10:29:34.090Z,88541.00
2023-03-20T10:30:34.393Z,88537.00
2023-03-20T10:31:34.166Z,88541.00
2023-03-20T10:32:34.105Z,88539.00
2023-03-20T10:33:34.082Z,88539.00
2023-03-20T10:34:34.079Z,88537.00
2023-03-20T10:35:34.107Z,88535.00
2023-03-20T10:36:34.068Z,88529.00
2023-03-20T10:37:34.046Z,88527.00
2023-03-20T10:38:34.186Z,88523.00
2023-03-20T10:39:34.026Z,88527.00
2023-03-20T10:40:34.350Z,88521.00
2023-03-20T10:41:34.007Z,88521.00
2023-03-20T10:42:34.047Z,88517.00
2023-03-20T10:43:34.661Z,88517.00
2023-03-20T10:44:33.985Z,88513.00
2023-03-20T10:45:33.998Z,88517.00
2023-03-20T10:46:34.122Z,88511.00
2023-03-20T10:47:34.054Z,88511.00
2023-03-20T10:48:34.006Z,88513.00
2023-03-20T10:49:33.991Z,88506.00
2023-03-20T10:50:34.415Z,88508.00
2023-03-20T10:51:33.998Z,88510.00
2023-03-20T10:52:34.001Z,88508.00
2023-03-20T10:53:34.020Z,88504.00
2023-03-20T10:54:34.033Z,88506.00
2023-03-20T10:55:34.038Z,88504.00
2023-03-20T10:56:34.034Z,88502.00
2023-03-20T10:57:34.082Z,88502.00
2023-03-20T10:58:34.076Z,88506.00
2023-03-20T10:59:34.092Z,88504.00
2023-03-20T11:00:34.401Z,88502.00
2023-03-20T11:01:35.827Z,88500.00
2023-03-20T11:02:34.202Z,88502.00
2023-03-20T11:03:34.124Z,88502.00
2023-03-20T11:04:34.248Z,88502.00
2023-03-20T11:05:34.149Z,88500.00
2023-03-20T11:06:34.165Z,88500.00
2023-03-20T11:07:34.169Z,88498.00
2023-03-20T11:08:34.178Z,88498.00
2023-03-20T11:09:34.224Z,88496.00
2023-03-20T11:10:34.515Z,88494.00
2023-03-20T11:11:34.230Z,88496.00
2023-03-20T11:12:34.234Z,88492.00
2023-03-20T11:13:34.314Z,88490.00
2023-03-20T11:14:34.256Z,88481.00
2023-03-20T11:15:34.328Z,88481.00
2023-03-20T11:16:34.337Z,88488.00
2023-03-20T11:17:34.298Z,88481.00
2023-03-20T11:18:34.305Z,88481.00
2023-03-20T11:19:34.337Z,88481.00
2023-03-20T11:20:41.399Z,88490.00
2023-03-20T11:21:34.387Z,88479.00
2023-03-20T11:22:34.514Z,88477.00
2023-03-20T11:23:34.485Z,88477.00
2023-03-20T11:24:35.288Z,88473.00
2023-03-20T11:25:34.502Z,88473.00
2023-03-20T11:26:34.535Z,88471.00
2023-03-20T11:32:53.490Z,88463.00
2023-03-20T11:33:53.424Z,88471.00
2023-03-20T11:34:53.397Z,88471.00
2023-03-20T11:35:53.411Z,88467.00
2023-03-20T11:37:08.680Z,88469.00
2023-03-20T11:38:53.264Z,88469.00
2023-03-20T11:39:53.257Z,88467.00
2023-03-20T11:40:53.209Z,88467.00
2023-03-20T11:41:53.188Z,88463.00
2023-03-20T11:42:53.197Z,88471.00
2023-03-20T11:43:53.084Z,88467.00
2023-03-20T11:44:53.042Z,88465.00
2023-03-20T11:45:53.046Z,88463.00
2023-03-20T11:46:52.937Z,88465.00
2023-03-20T11:47:52.907Z,88465.00
2023-03-20T11:48:52.844Z,88453.00
2023-03-20T11:49:52.827Z,88451.00
2023-03-20T11:50:52.791Z,88451.00